Time;durP1;ratioP1;P1;durP2;ratioP2;P2;SDS_P1;SDS_P2;PMS_P1;PMS_P2;Temp;Humidity;BMP_temperature;BMP_pressure;BME280_temperature;BME280_humidity;BME280_pressure;Samples;Min_cycle;Max_cycle;Signal;HPM_P1;HPM_P2
2022/12/07 00:01:44;;;;;;;47.22;26.08;;;;;;;;;;5057800;28;20411;-91
2022/12/07 00:04:11;;;;;;;66.45;25.65;;;;;;;;;;5056324;28;20032;-90
2022/12/07 00:06:38;;;;;;;39.80;22.63;;;;;;;;;;5056244;28;20037;-90
2022/12/07 00:09:05;;;;;;;47.67;25.88;;;;;;;;;;5057061;28;20029;-89
2022/12/07 00:11:31;;;;;;;56.50;27.88;;;;;;;;;;5057682;28;20035;-89
2022/12/07 00:13:58;;;;;;;127.13;31.38;;;;;;;;;;5056337;28;20108;-90
2022/12/07 00:19:28;;;;;;;61.47;27.40;;;;;;;;;;5057273;28;20138;-89
2022/12/07 00:21:54;;;;;;;42.00;19.85;;;;;;;;;;5055804;28;20049;-89
2022/12/07 00:24:20;;;;;;;37.83;16.83;;;;;;;;;;5057626;28;20033;-89
2022/12/07 00:26:47;;;;;;;34.90;14.75;;;;;;;;;;5049362;28;20056;-89
2022/12/07 00:29:18;;;;;;;19.20;12.38;;;;;;;;;;5038761;28;20021;-90
2022/12/07 00:31:44;;;;;;;36.03;12.15;;;;;;;;;;5061173;28;20029;-90
2022/12/07 00:34:14;;;;;;;54.42;11.73;;;;;;;;;;5060253;28;20029;-90
2022/12/07 00:36:40;;;;;;;13.52;9.85;;;;;;;;;;5061216;28;20025;-90
2022/12/07 00:39:06;;;;;;;15.10;10.18;;;;;;;;;;5059711;28;20029;-89
2022/12/07 00:41:32;;;;;;;54.35;11.98;;;;;;;;;;5060929;28;20032;-89
2022/12/07 00:43:58;;;;;;;14.23;9.90;;;;;;;;;;5060829;28;20112;-90
2022/12/07 00:46:25;;;;;;;25.15;10.40;;;;;;;;;;5060967;28;20025;-89
2022/12/07 00:48:52;;;;;;;15.55;10.55;;;;;;;;;;5061087;28;20041;-89
2022/12/07 00:51:19;;;;;;;17.13;10.65;;;;;;;;;;5060417;28;20028;-89
2022/12/07 00:53:45;;;;;;;16.88;10.98;;;;;;;;;;5060590;28;20460;-89
2022/12/07 00:56:11;;;;;;;22.45;13.20;;;;;;;;;;5059728;28;20041;-89
2022/12/07 00:58:37;;;;;;;18.25;12.05;;;;;;;;;;5059448;28;20025;-89
2022/12/07 01:01:04;;;;;;;17.27;10.93;;;;;;;;;;5060474;28;20036;-89
2022/12/07 01:03:31;;;;;;;17.50;11.07;;;;;;;;;;5059557;28;20029;-89
2022/12/07 01:05:57;;;;;;;45.50;11.50;;;;;;;;;;5060737;28;20320;-89
2022/12/07 01:08:24;;;;;;;18.42;12.00;;;;;;;;;;5060350;28;20021;-90
2022/12/07 01:10:57;;;;;;;17.88;11.05;;;;;;;;;;5059978;28;20021;-89
2022/12/07 01:13:23;;;;;;;24.48;13.63;;;;;;;;;;5059345;28;20041;-89
2022/12/07 01:15:49;;;;;;;21.95;13.73;;;;;;;;;;5060251;28;20103;-89
2022/12/07 01:18:34;;;;;;;23.83;12.95;;;;;;;;;;5060145;28;20082;-91
2022/12/07 01:21:00;;;;;;;39.42;14.02;;;;;;;;;;5059916;28;20386;-90
2022/12/07 01:23:26;;;;;;;48.20;14.07;;;;;;;;;;5059813;28;20429;-90
2022/12/07 01:25:58;;;;;;;26.40;14.68;;;;;;;;;;5059228;28;20025;-90
2022/12/07 01:28:24;;;;;;;47.42;13.70;;;;;;;;;;5059523;28;20021;-89
2022/12/07 01:34:12;;;;;;;56.70;13.13;;;;;;;;;;5046527;28;20060;-89
2022/12/07 01:36:39;;;;;;;158.43;15.30;;;;;;;;;;5060068;28;20032;-89
2022/12/07 01:39:07;;;;;;;80.25;13.63;;;;;;;;;;5059519;28;20032;-89
2022/12/07 01:41:34;;;;;;;32.03;12.23;;;;;;;;;;5058436;28;20102;-88
2022/12/07 01:44:06;;;;;;;37.00;18.67;;;;;;;;;;5059705;28;20017;-89
2022/12/07 01:47:10;;;;;;;32.55;16.42;;;;;;;;;;5059771;28;20025;-89
2022/12/07 01:49:47;;;;;;;25.38;14.65;;;;;;;;;;5058646;28;20069;-89
2022/12/07 01:52:20;;;;;;;17.77;11.82;;;;;;;;;;5059544;28;20115;-87
2022/12/07 01:54:48;;;;;;;17.63;12.02;;;;;;;;;;5058311;28;20055;-88
2022/12/07 01:57:16;;;;;;;18.83;12.52;;;;;;;;;;5059692;28;20028;-89
2022/12/07 01:59:43;;;;;;;15.60;11.50;;;;;;;;;;5059223;28;20327;-89
2022/12/07 02:02:12;;;;;;;18.42;11.75;;;;;;;;;;5058570;28;20025;-89
2022/12/07 02:04:38;;;;;;;18.00;12.02;;;;;;;;;;5058368;28;20021;-88
2022/12/07 02:07:05;;;;;;;21.17;12.55;;;;;;;;;;5058587;28;20048;-88
2022/12/07 02:09:31;;;;;;;22.73;12.93;;;;;;;;;;5059025;28;20112;-89
2022/12/07 02:11:57;;;;;;;39.38;17.70;;;;;;;;;;5058616;28;20025;-89
2022/12/07 02:14:24;;;;;;;30.25;16.15;;;;;;;;;;5059537;28;20028;-89
2022/12/07 02:19:56;;;;;;;15.00;10.15;;;;;;;;;;5059080;28;20074;-88
2022/12/07 02:22:41;;;;;;;13.85;10.00;;;;;;;;;;5058994;28;20430;-88
2022/12/07 02:25:07;;;;;;;14.93;10.32;;;;;;;;;;5058095;28;20071;-89
2022/12/07 02:28:02;;;;;;;12.80;9.70;;;;;;;;;;5058857;28;20029;-88
2022/12/07 02:30:31;;;;;;;22.25;10.50;;;;;;;;;;4994756;28;20035;-88
2022/12/07 02:32:59;;;;;;;17.00;10.32;;;;;;;;;;4986693;28;20114;-89
2022/12/07 02:35:44;;;;;;;12.70;9.63;;;;;;;;;;4997969;28;20039;-89
2022/12/07 02:38:10;;;;;;;14.32;9.20;;;;;;;;;;4997948;28;20061;-88
2022/12/07 02:40:41;;;;;;;13.98;9.60;;;;;;;;;;4997831;28;20419;-88
2022/12/07 02:43:19;;;;;;;12.75;9.20;;;;;;;;;;4997341;28;20026;-89
2022/12/07 02:45:46;;;;;;;16.33;10.85;;;;;;;;;;4997712;28;20034;-89
2022/12/07 02:48:31;;;;;;;43.22;15.30;;;;;;;;;;4997346;28;20046;-89
2022/12/07 02:50:57;;;;;;;46.03;16.08;;;;;;;;;;4997653;28;20457;-88
2022/12/07 02:53:32;;;;;;;32.45;14.75;;;;;;;;;;4994006;28;20042;-89
2022/12/07 02:55:58;;;;;;;22.60;10.80;;;;;;;;;;4997493;28;20038;-88
2022/12/07 02:58:42;;;;;;;26.65;10.45;;;;;;;;;;4997293;28;20133;-88
2022/12/07 03:04:24;;;;;;;13.32;9.10;;;;;;;;;;4997826;28;20025;-90
2022/12/07 03:06:53;;;;;;;14.50;9.50;;;;;;;;;;5018263;28;20029;-89
2022/12/07 03:09:29;;;;;;;20.10;11.00;;;;;;;;;;5053344;28;20025;-88
2022/12/07 03:12:16;;;;;;;19.42;11.18;;;;;;;;;;5058463;28;20063;-89
2022/12/07 03:14:47;;;;;;;14.90;9.63;;;;;;;;;;5057938;28;20079;-89
2022/12/07 03:17:16;;;;;;;15.57;10.15;;;;;;;;;;5057356;28;20041;-89
2022/12/07 03:19:43;;;;;;;19.10;10.18;;;;;;;;;;5057519;28;21399;-89
2022/12/07 03:22:11;;;;;;;15.73;10.57;;;;;;;;;;5057915;28;20406;-88
2022/12/07 03:24:42;;;;;;;12.57;8.73;;;;;;;;;;5058053;28;20013;-89
2022/12/07 03:27:12;;;;;;;12.18;8.43;;;;;;;;;;5058439;28;20063;-89
2022/12/07 03:29:40;;;;;;;14.00;10.23;;;;;;;;;;5039883;28;20357;-89
2022/12/07 03:32:25;;;;;;;13.63;8.93;;;;;;;;;;5038347;28;20037;-89
2022/12/07 03:34:51;;;;;;;12.48;8.95;;;;;;;;;;5057522;28;20330;-89
2022/12/07 03:37:27;;;;;;;11.70;8.95;;;;;;;;;;5056555;28;20041;-88
2022/12/07 03:40:04;;;;;;;10.80;8.32;;;;;;;;;;5057676;28;20311;-90
2022/12/07 03:42:31;;;;;;;12.50;8.27;;;;;;;;;;5057631;28;20024;-88
2022/12/07 03:44:57;;;;;;;12.20;8.60;;;;;;;;;;5056855;28;20062;-89
2022/12/07 03:47:41;;;;;;;10.85;8.77;;;;;;;;;;5057490;28;20044;-89
2022/12/07 03:50:22;;;;;;;13.38;9.38;;;;;;;;;;5056366;28;20045;-90
2022/12/07 03:52:57;;;;;;;13.10;10.32;;;;;;;;;;5057661;28;20362;-90
2022/12/07 03:55:31;;;;;;;13.63;9.95;;;;;;;;;;5057996;28;20340;-90
2022/12/07 03:57:59;;;;;;;13.43;9.73;;;;;;;;;;5057229;28;20080;-89
2022/12/07 04:00:26;;;;;;;15.75;10.82;;;;;;;;;;5057382;28;20427;-88
2022/12/07 04:02:53;;;;;;;15.63;10.23;;;;;;;;;;5057578;28;20296;-88
2022/12/07 04:05:19;;;;;;;13.80;10.32;;;;;;;;;;5055890;28;20419;-89
2022/12/07 04:07:45;;;;;;;12.50;9.35;;;;;;;;;;5057652;28;20025;-89
2022/12/07 04:10:11;;;;;;;11.13;9.50;;;;;;;;;;5055935;28;20029;-88
2022/12/07 04:12:38;;;;;;;12.52;9.65;;;;;;;;;;5057748;28;20013;-88
2022/12/07 04:15:04;;;;;;;14.07;10.30;;;;;;;;;;5056966;28;20032;-88
2022/12/07 04:20:34;;;;;;;16.38;10.95;;;;;;;;;;5057096;28;20449;-88
2022/12/07 04:23:00;;;;;;;18.25;11.20;;;;;;;;;;5055905;28;20110;-88
2022/12/07 04:25:26;;;;;;;28.98;18.63;;;;;;;;;;5057366;28;20032;-89
2022/12/07 04:27:53;;;;;;;23.38;16.67;;;;;;;;;;5056150;28;20021;-89
2022/12/07 04:30:19;;;;;;;24.45;16.90;;;;;;;;;;5057326;28;20025;-89
2022/12/07 04:33:04;;;;;;;28.80;17.40;;;;;;;;;;5056244;28;20033;-89
2022/12/07 04:35:30;;;;;;;23.42;16.70;;;;;;;;;;5056738;28;20029;-88
2022/12/07 04:37:56;;;;;;;25.33;16.98;;;;;;;;;;5057329;28;20049;-88
2022/12/07 04:40:22;;;;;;;21.48;14.80;;;;;;;;;;5056857;28;20349;-89
2022/12/07 04:42:48;;;;;;;21.40;14.48;;;;;;;;;;5056235;28;20465;-88
2022/12/07 04:45:14;;;;;;;19.70;13.63;;;;;;;;;;5056119;28;20411;-90
2022/12/07 04:50:44;;;;;;;29.48;15.05;;;;;;;;;;5055312;28;20068;-88
2022/12/07 04:53:10;;;;;;;380.05;96.72;;;;;;;;;;5057116;28;20033;-89
2022/12/07 04:55:36;;;;;;;409.35;102.45;;;;;;;;;;5057005;28;20024;-89
2022/12/07 04:58:02;;;;;;;252.63;66.25;;;;;;;;;;5057025;28;20029;-89
2022/12/07 05:00:28;;;;;;;170.00;48.75;;;;;;;;;;5055810;28;20304;-89
2022/12/07 05:02:54;;;;;;;140.68;52.35;;;;;;;;;;5055909;28;20025;-89
2022/12/07 05:05:20;;;;;;;156.65;60.00;;;;;;;;;;5057058;28;20025;-89
2022/12/07 05:07:46;;;;;;;115.93;46.30;;;;;;;;;;5055795;28;20036;-89
2022/12/07 05:10:12;;;;;;;88.20;35.50;;;;;;;;;;5055816;28;20028;-88
2022/12/07 05:12:38;;;;;;;49.85;24.65;;;;;;;;;;5055816;28;20017;-89
2022/12/07 05:15:05;;;;;;;36.38;19.42;;;;;;;;;;5056537;28;20025;-89
2022/12/07 05:17:31;;;;;;;31.13;18.83;;;;;;;;;;5059732;28;20021;-88
2022/12/07 05:19:57;;;;;;;33.17;20.33;;;;;;;;;;5059311;28;20037;-89
2022/12/07 05:22:27;;;;;;;34.90;21.65;;;;;;;;;;5060053;28;20023;-88
2022/12/07 05:24:53;;;;;;;33.10;21.40;;;;;;;;;;5060374;28;20025;-89
2022/12/07 05:27:20;;;;;;;36.75;22.58;;;;;;;;;;5060496;28;20025;-89
2022/12/07 05:29:46;;;;;;;34.67;20.13;;;;;;;;;;5060469;28;20017;-89
2022/12/07 05:32:12;;;;;;;31.08;19.70;;;;;;;;;;5059817;28;20033;-88
2022/12/07 05:34:39;;;;;;;34.97;21.15;;;;;;;;;;5059757;28;20043;-89
2022/12/07 05:37:05;;;;;;;27.77;18.05;;;;;;;;;;5039223;28;20033;-91
2022/12/07 05:39:31;;;;;;;24.65;16.90;;;;;;;;;;5043285;28;20112;-89
2022/12/07 05:42:12;;;;;;;32.83;19.75;;;;;;;;;;5060010;28;20028;-88
2022/12/07 05:44:40;;;;;;;33.83;18.95;;;;;;;;;;5056010;28;20445;-94
2022/12/07 05:47:07;;;;;;;26.10;15.68;;;;;;;;;;5059849;28;20029;-94
2022/12/07 05:49:33;;;;;;;25.27;14.32;;;;;;;;;;5058923;28;20472;-94
2022/12/07 05:51:59;;;;;;;32.20;18.50;;;;;;;;;;5059973;28;20020;-94
2022/12/07 05:54:26;;;;;;;40.78;22.73;;;;;;;;;;5059825;28;20098;-94
2022/12/07 05:56:52;;;;;;;32.72;19.48;;;;;;;;;;5058838;28;20040;-94
2022/12/07 05:59:24;;;;;;;27.58;15.93;;;;;;;;;;5059401;28;20025;-95
2022/12/07 06:01:53;;;;;;;97.88;37.22;;;;;;;;;;5059584;28;20374;-95
2022/12/07 06:04:20;;;;;;;133.43;45.53;;;;;;;;;;5059457;28;20029;-95
2022/12/07 06:06:46;;;;;;;119.80;43.72;;;;;;;;;;5059526;28;20031;-94
2022/12/07 06:09:12;;;;;;;73.68;33.25;;;;;;;;;;5059569;28;20025;-90
2022/12/07 06:14:24;;;;;;;70.22;34.20;;;;;;;;;;5059659;28;20102;-93
2022/12/07 06:17:06;;;;;;;71.95;36.45;;;;;;;;;;5059218;28;20032;-93
2022/12/07 06:19:32;;;;;;;61.28;33.22;;;;;;;;;;5058468;28;20045;-95
2022/12/07 06:21:58;;;;;;;62.00;33.38;;;;;;;;;;5058592;28;20033;-93
2022/12/07 06:24:25;;;;;;;56.38;30.02;;;;;;;;;;5059260;28;20315;-95
2022/12/07 06:26:51;;;;;;;44.50;24.90;;;;;;;;;;5058800;28;20195;-92
2022/12/07 06:29:18;;;;;;;35.83;21.35;;;;;;;;;;5058223;28;20032;-94
2022/12/07 06:31:44;;;;;;;44.25;24.25;;;;;;;;;;5059061;28;20029;-94
2022/12/07 06:34:11;;;;;;;37.88;22.83;;;;;;;;;;5058011;28;20316;-93
2022/12/07 06:36:38;;;;;;;37.17;23.17;;;;;;;;;;5059149;28;20029;-93
2022/12/07 06:39:04;;;;;;;30.67;19.55;;;;;;;;;;5059086;28;20363;-94
2022/12/07 06:41:30;;;;;;;31.50;20.38;;;;;;;;;;5057919;28;20032;-93
2022/12/07 06:43:56;;;;;;;30.13;18.83;;;;;;;;;;5058996;28;20311;-95
2022/12/07 06:46:23;;;;;;;40.60;21.27;;;;;;;;;;5057785;28;20021;-93
2022/12/07 06:48:49;;;;;;;38.65;22.42;;;;;;;;;;5058780;28;20029;-93
2022/12/07 06:51:15;;;;;;;41.45;23.08;;;;;;;;;;5057773;28;20037;-95
2022/12/07 06:53:41;;;;;;;40.15;25.33;;;;;;;;;;5058816;28;20040;-93
2022/12/07 06:56:08;;;;;;;38.20;21.85;;;;;;;;;;5058565;28;20024;-93
2022/12/07 06:58:34;;;;;;;42.08;22.70;;;;;;;;;;5057848;28;20025;-95
2022/12/07 07:01:00;;;;;;;39.45;21.25;;;;;;;;;;5057570;28;20037;-94
2022/12/07 07:03:26;;;;;;;29.25;18.42;;;;;;;;;;5057417;28;20025;-94
2022/12/07 07:05:52;;;;;;;32.42;19.63;;;;;;;;;;5058687;28;20314;-94
2022/12/07 07:08:18;;;;;;;36.70;20.30;;;;;;;;;;5057390;28;20024;-93
2022/12/07 07:10:44;;;;;;;34.67;20.50;;;;;;;;;;5057401;28;20037;-93
2022/12/07 07:13:10;;;;;;;32.92;19.70;;;;;;;;;;5057591;28;20029;-92
2022/12/07 07:15:38;;;;;;;29.42;19.08;;;;;;;;;;5058250;28;20035;-93
2022/12/07 07:18:04;;;;;;;28.25;17.77;;;;;;;;;;5058275;28;20148;-93
2022/12/07 07:20:30;;;;;;;28.92;18.35;;;;;;;;;;5057188;28;20115;-95
2022/12/07 07:22:56;;;;;;;26.17;16.50;;;;;;;;;;5057136;28;20021;-94
2022/12/07 07:25:23;;;;;;;24.92;17.30;;;;;;;;;;5058168;28;20025;-93
2022/12/07 07:27:49;;;;;;;26.83;16.80;;;;;;;;;;5058009;28;20021;-93
2022/12/07 07:30:15;;;;;;;24.95;16.30;;;;;;;;;;5066633;28;20111;-93
2022/12/07 07:32:41;;;;;;;25.67;15.43;;;;;;;;;;5077870;28;20025;-93
2022/12/07 07:35:07;;;;;;;20.67;14.10;;;;;;;;;;5077911;28;20021;-94
2022/12/07 07:37:33;;;;;;;19.75;14.15;;;;;;;;;;5077588;28;20074;-94
2022/12/07 07:39:59;;;;;;;24.25;15.05;;;;;;;;;;5076568;28;20310;-94
2022/12/07 07:42:27;;;;;;;19.90;13.93;;;;;;;;;;5077664;28;20059;-94
2022/12/07 07:44:54;;;;;;;21.38;14.15;;;;;;;;;;5077683;28;20056;-96
2022/12/07 07:47:20;;;;;;;25.33;16.17;;;;;;;;;;5077781;28;20027;-94
2022/12/07 07:49:46;;;;;;;22.50;14.30;;;;;;;;;;5077400;28;20056;-94
2022/12/07 07:52:12;;;;;;;25.48;15.18;;;;;;;;;;5077007;28;20024;-90
2022/12/07 07:54:39;;;;;;;25.40;15.63;;;;;;;;;;5077138;28;20025;-92
2022/12/07 07:57:05;;;;;;;22.38;14.77;;;;;;;;;;5077648;28;20021;-92
2022/12/07 07:59:31;;;;;;;24.65;16.08;;;;;;;;;;5077900;28;20119;-91
2022/12/07 08:01:57;;;;;;;24.42;15.65;;;;;;;;;;5077773;28;20107;-91
2022/12/07 08:04:23;;;;;;;24.42;16.65;;;;;;;;;;5076680;28;20020;-90
2022/12/07 08:06:49;;;;;;;24.60;15.90;;;;;;;;;;5077880;28;20025;-92
2022/12/07 08:09:15;;;;;;;22.73;15.63;;;;;;;;;;5077772;28;20114;-92
2022/12/07 08:11:41;;;;;;;27.23;17.90;;;;;;;;;;5076399;28;20074;-91
2022/12/07 08:14:07;;;;;;;34.05;20.30;;;;;;;;;;5077543;28;20100;-92
2022/12/07 08:16:33;;;;;;;37.15;21.17;;;;;;;;;;5076709;28;20039;-92
2022/12/07 08:18:59;;;;;;;33.53;19.33;;;;;;;;;;5076789;28;20036;-91
2022/12/07 08:21:25;;;;;;;29.88;18.70;;;;;;;;;;5076377;28;20391;-90
2022/12/07 08:23:51;;;;;;;28.90;18.40;;;;;;;;;;5077691;28;20052;-92
2022/12/07 08:26:18;;;;;;;26.98;16.50;;;;;;;;;;5079082;28;20028;-93
2022/12/07 08:28:44;;;;;;;31.77;17.88;;;;;;;;;;5077604;28;20028;-90
2022/12/07 08:31:15;;;;;;;25.83;18.27;;;;;;;;;;5077055;28;20036;-93
2022/12/07 08:33:41;;;;;;;34.72;18.85;;;;;;;;;;5076732;28;20020;-89
2022/12/07 08:36:08;;;;;;;39.20;24.27;;;;;;;;;;5076207;28;20418;-91
2022/12/07 08:38:35;;;;;;;50.00;34.38;;;;;;;;;;5077727;28;20029;-91
2022/12/07 08:41:01;;;;;;;53.25;34.88;;;;;;;;;;5077128;28;20052;-90
2022/12/07 08:43:27;;;;;;;40.10;24.83;;;;;;;;;;5077397;28;20463;-95
2022/12/07 08:45:59;;;;;;;32.72;21.17;;;;;;;;;;5075853;28;20025;-90
2022/12/07 08:48:26;;;;;;;31.92;20.77;;;;;;;;;;5077420;28;20037;-91
2022/12/07 08:50:52;;;;;;;47.63;28.73;;;;;;;;;;5078066;28;20050;-90
2022/12/07 08:53:18;;;;;;;71.65;37.58;;;;;;;;;;5081054;28;20021;-90
2022/12/07 08:55:45;;;;;;;60.20;33.85;;;;;;;;;;5079968;28;20123;-91
2022/12/07 08:58:11;;;;;;;47.65;27.23;;;;;;;;;;5081105;28;20446;-90
2022/12/07 09:00:37;;;;;;;41.95;24.98;;;;;;;;;;5080717;28;20032;-91
2022/12/07 09:03:03;;;;;;;36.60;22.63;;;;;;;;;;5080766;28;20025;-90
2022/12/07 09:05:29;;;;;;;40.88;24.65;;;;;;;;;;5079841;28;20016;-91
2022/12/07 09:07:58;;;;;;;203.50;118.90;;;;;;;;;;5080604;28;20025;-91
2022/12/07 09:10:24;;;;;;;75.57;44.53;;;;;;;;;;5080633;28;20020;-91
2022/12/07 09:12:50;;;;;;;101.03;61.15;;;;;;;;;;5080539;28;20025;-91
2022/12/07 09:15:16;;;;;;;277.08;149.88;;;;;;;;;;5080605;28;20024;-90
2022/12/07 09:17:42;;;;;;;334.83;132.82;;;;;;;;;;5062986;28;20311;-90
2022/12/07 09:20:08;;;;;;;224.48;91.13;;;;;;;;;;5079310;28;20033;-91
2022/12/07 09:22:34;;;;;;;268.83;115.47;;;;;;;;;;5080516;28;20029;-91
2022/12/07 09:25:00;;;;;;;155.07;66.43;;;;;;;;;;5079548;28;20020;-91
2022/12/07 09:27:26;;;;;;;224.15;97.60;;;;;;;;;;5080477;28;20043;-90
2022/12/07 09:29:53;;;;;;;578.55;292.05;;;;;;;;;;5080510;28;20044;-90
2022/12/07 09:32:19;;;;;;;535.78;242.93;;;;;;;;;;5079740;28;20060;-89
2022/12/07 09:34:45;;;;;;;320.13;125.82;;;;;;;;;;5080139;28;20025;-89
2022/12/07 09:37:11;;;;;;;858.80;392.52;;;;;;;;;;5079529;28;20095;-90
2022/12/07 09:39:40;;;;;;;695.83;307.17;;;;;;;;;;5080000;28;20024;-92
2022/12/07 09:42:07;;;;;;;189.40;72.65;;;;;;;;;;5078929;28;20035;-90
2022/12/07 09:44:34;;;;;;;1080.30;499.02;;;;;;;;;;5079064;28;20024;-89
2022/12/07 09:47:01;;;;;;;353.70;143.38;;;;;;;;;;5079868;28;20031;-89
2022/12/07 09:49:29;;;;;;;933.53;446.85;;;;;;;;;;5078546;28;20086;-89
2022/12/07 09:52:01;;;;;;;478.98;211.50;;;;;;;;;;5080276;28;20044;-89
2022/12/07 09:54:27;;;;;;;298.77;137.77;;;;;;;;;;5079076;28;20028;-89
2022/12/07 09:56:53;;;;;;;169.95;80.55;;;;;;;;;;5079912;28;20406;-89
2022/12/07 09:59:19;;;;;;;118.90;62.70;;;;;;;;;;5078582;28;20028;-87
2022/12/07 10:01:47;;;;;;;224.15;113.57;;;;;;;;;;5077536;28;20039;-86
2022/12/07 10:04:34;;;;;;;687.15;371.90;;;;;;;;;;5079515;28;20070;-86
2022/12/07 10:07:00;;;;;;;514.67;250.55;;;;;;;;;;5078749;28;20136;-87
2022/12/07 10:09:28;;;;;;;807.72;419.60;;;;;;;;;;5077941;28;20438;-87
2022/12/07 10:12:24;;;;;;;268.17;122.68;;;;;;;;;;5078517;28;20028;-86
2022/12/07 10:15:07;;;;;;;169.80;76.15;;;;;;;;;;5057744;28;20079;-86
2022/12/07 10:17:35;;;;;;;550.15;255.23;;;;;;;;;;5057632;28;20025;-88
2022/12/07 10:20:10;;;;;;;286.83;110.05;;;;;;;;;;5041169;28;20048;-91
2022/12/07 10:22:36;;;;;;;96.13;44.55;;;;;;;;;;5040684;28;20125;-91
2022/12/07 10:25:23;;;;;;;290.58;117.15;;;;;;;;;;5057432;28;20029;-91
2022/12/07 10:27:58;;;;;;;204.38;87.18;;;;;;;;;;5057427;28;20100;-90
2022/12/07 10:30:25;;;;;;;241.82;100.97;;;;;;;;;;5057394;28;20027;-91
2022/12/07 10:32:51;;;;;;;275.55;113.93;;;;;;;;;;5057381;28;20037;-90
2022/12/07 10:35:17;;;;;;;459.33;193.63;;;;;;;;;;5057699;28;20021;-90
2022/12/07 10:37:45;;;;;;;230.27;97.85;;;;;;;;;;5057546;28;20029;-90
2022/12/07 10:40:34;;;;;;;267.13;114.63;;;;;;;;;;5057342;28;20027;-90
2022/12/07 10:43:04;;;;;;;324.45;136.07;;;;;;;;;;4997461;28;20332;-90
2022/12/07 10:45:31;;;;;;;280.15;117.47;;;;;;;;;;4997297;28;20129;-90
2022/12/07 10:48:06;;;;;;;147.55;64.07;;;;;;;;;;4997818;28;20192;-90
2022/12/07 10:50:50;;;;;;;207.68;89.70;;;;;;;;;;4996610;28;20046;-90
2022/12/07 10:53:16;;;;;;;78.97;41.53;;;;;;;;;;4997795;28;20030;-92
2022/12/07 10:56:00;;;;;;;167.90;74.88;;;;;;;;;;4998009;28;20045;-92
2022/12/07 10:58:45;;;;;;;162.43;74.38;;;;;;;;;;4997731;28;20026;-91
2022/12/07 11:01:34;;;;;;;122.93;57.63;;;;;;;;;;4981549;28;20454;-89
2022/12/07 11:04:00;;;;;;;428.15;177.70;;;;;;;;;;5017147;28;20034;-90
2022/12/07 11:06:38;;;;;;;562.95;260.90;;;;;;;;;;5017108;28;20367;-89
2022/12/07 11:09:04;;;;;;;491.10;233.70;;;;;;;;;;5000533;28;20038;-86
2022/12/07 11:11:34;;;;;;;518.47;242.30;;;;;;;;;;5016998;28;20055;-86
2022/12/07 11:14:00;;;;;;;312.17;131.63;;;;;;;;;;5000700;28;20037;-88
2022/12/07 11:16:38;;;;;;;183.95;78.38;;;;;;;;;;5000581;28;20022;-87
2022/12/07 11:19:07;;;;;;;190.55;79.82;;;;;;;;;;4979081;28;20125;-86
2022/12/07 11:21:33;;;;;;;79.10;38.63;;;;;;;;;;5005175;28;20027;-87
2022/12/07 11:24:04;;;;;;;85.22;40.05;;;;;;;;;;5014699;28;20025;-87
2022/12/07 11:26:49;;;;;;;85.90;41.13;;;;;;;;;;5016665;28;20165;-88
2022/12/07 11:29:33;;;;;;;62.58;32.60;;;;;;;;;;5016701;28;20034;-88
2022/12/07 11:32:18;;;;;;;77.05;38.10;;;;;;;;;;5016763;28;20056;-88
2022/12/07 11:34:59;;;;;;;160.07;69.55;;;;;;;;;;5017047;28;20048;-88
2022/12/07 11:37:29;;;;;;;106.50;51.70;;;;;;;;;;5016551;28;20045;-88
2022/12/07 11:39:57;;;;;;;85.07;39.17;;;;;;;;;;5017896;28;20025;-89
2022/12/07 11:42:30;;;;;;;86.50;34.63;;;;;;;;;;5020050;28;20041;-87
2022/12/07 11:45:15;;;;;;;94.85;41.38;;;;;;;;;;5036669;28;20315;-87
2022/12/07 11:48:00;;;;;;;56.70;29.42;;;;;;;;;;5036748;28;20412;-87
2022/12/07 11:50:32;;;;;;;75.00;36.03;;;;;;;;;;5036612;28;20045;-88
2022/12/07 11:53:08;;;;;;;464.48;197.63;;;;;;;;;;5037748;28;20045;-89
2022/12/07 11:55:48;;;;;;;574.10;248.23;;;;;;;;;;5037577;28;20025;-88
2022/12/07 11:58:14;;;;;;;130.27;54.85;;;;;;;;;;5037546;28;20071;-88
2022/12/07 12:00:40;;;;;;;323.75;125.03;;;;;;;;;;5036659;28;20030;-88
2022/12/07 12:03:11;;;;;;;528.80;217.60;;;;;;;;;;5036479;28;20033;-89
2022/12/07 12:05:39;;;;;;;584.72;234.15;;;;;;;;;;5037527;28;20025;-86
2022/12/07 12:08:24;;;;;;;426.92;159.63;;;;;;;;;;5037455;28;20418;-89
2022/12/07 12:10:50;;;;;;;501.55;204.57;;;;;;;;;;5036992;28;20124;-88
2022/12/07 12:13:22;;;;;;;281.63;110.65;;;;;;;;;;5036575;28;20435;-88
2022/12/07 12:16:07;;;;;;;112.70;50.55;;;;;;;;;;5037674;28;20025;-88
2022/12/07 12:18:41;;;;;;;145.65;62.55;;;;;;;;;;5037526;28;20042;-89
2022/12/07 12:21:12;;;;;;;136.45;58.70;;;;;;;;;;5037647;28;20068;-90
2022/12/07 12:23:44;;;;;;;120.30;53.55;;;;;;;;;;5037409;28;20030;-86
2022/12/07 12:26:19;;;;;;;58.97;33.08;;;;;;;;;;5040576;28;20354;-88
2022/12/07 12:28:58;;;;;;;93.25;42.58;;;;;;;;;;5041390;28;20044;-89
2022/12/07 12:31:24;;;;;;;114.53;48.78;;;;;;;;;;5041664;28;20028;-91
2022/12/07 12:34:00;;;;;;;102.45;41.13;;;;;;;;;;5045930;28;20419;-89
2022/12/07 12:36:26;;;;;;;86.43;36.70;;;;;;;;;;5061182;28;20501;-89
2022/12/07 12:38:53;;;;;;;53.78;26.63;;;;;;;;;;5060000;28;20078;-89
2022/12/07 12:44:15;;;;;;;60.70;27.67;;;;;;;;;;5061283;28;20119;-88
2022/12/07 12:46:52;;;;;;;127.15;52.85;;;;;;;;;;5061111;28;20109;-89
2022/12/07 12:49:19;;;;;;;176.30;72.95;;;;;;;;;;5045691;28;20330;-88
2022/12/07 12:51:46;;;;;;;275.48;114.05;;;;;;;;;;5049664;28;20427;-88
2022/12/07 12:54:18;;;;;;;265.17;116.60;;;;;;;;;;5051301;28;20029;-88
2022/12/07 12:57:03;;;;;;;268.13;107.95;;;;;;;;;;5049229;28;20038;-87
2022/12/07 12:59:30;;;;;;;331.77;138.50;;;;;;;;;;5048848;28;20051;-88
2022/12/07 13:02:07;;;;;;;469.80;212.93;;;;;;;;;;5047128;28;20021;-88
2022/12/07 13:04:52;;;;;;;233.18;97.97;;;;;;;;;;5040714;28;20105;-88
2022/12/07 13:07:37;;;;;;;269.30;111.80;;;;;;;;;;5040250;28;20021;-88
2022/12/07 13:10:03;;;;;;;192.30;82.95;;;;;;;;;;5040985;28;20030;-84
2022/12/07 13:12:29;;;;;;;237.68;102.25;;;;;;;;;;5040859;28;20030;-88
2022/12/07 13:14:59;;;;;;;289.92;115.47;;;;;;;;;;5040467;28;20029;-83
2022/12/07 13:17:48;;;;;;;192.70;77.38;;;;;;;;;;5040040;28;20075;-83
2022/12/07 13:20:34;;;;;;;274.67;117.05;;;;;;;;;;5034697;28;20420;-83
2022/12/07 13:23:00;;;;;;;556.38;265.67;;;;;;;;;;5041777;28;20018;-83
2022/12/07 13:25:36;;;;;;;456.85;194.85;;;;;;;;;;5058109;28;20104;-82
2022/12/07 13:28:17;;;;;;;290.70;121.20;;;;;;;;;;5044237;28;20029;-82
2022/12/07 13:31:03;;;;;;;315.45;133.82;;;;;;;;;;5038670;28;20063;-83
2022/12/07 13:33:29;;;;;;;218.02;95.13;;;;;;;;;;5039569;28;20025;-83
2022/12/07 13:35:56;;;;;;;339.02;151.80;;;;;;;;;;5039454;28;20026;-84
2022/12/07 13:38:37;;;;;;;258.02;113.88;;;;;;;;;;5037852;28;20052;-83
2022/12/07 13:41:03;;;;;;;303.70;137.07;;;;;;;;;;5039933;28;20026;-83
2022/12/07 13:43:29;;;;;;;287.65;135.93;;;;;;;;;;5038571;28;20439;-83
2022/12/07 13:46:00;;;;;;;246.68;117.65;;;;;;;;;;5038765;28;20124;-83
2022/12/07 13:48:33;;;;;;;319.92;150.07;;;;;;;;;;5039877;28;20097;-83
2022/12/07 13:51:00;;;;;;;573.50;294.08;;;;;;;;;;5039422;28;20046;-83
2022/12/07 13:53:30;;;;;;;291.55;133.20;;;;;;;;;;5038809;28;20092;-84
2022/12/07 13:55:56;;;;;;;205.38;98.18;;;;;;;;;;5039613;28;20036;-84
2022/12/07 13:58:22;;;;;;;228.15;107.40;;;;;;;;;;5039506;28;20029;-87
2022/12/07 14:00:49;;;;;;;111.35;54.45;;;;;;;;;;5039326;28;20032;-83
2022/12/07 14:03:15;;;;;;;104.20;50.03;;;;;;;;;;5039471;28;20029;-83
2022/12/07 14:05:41;;;;;;;96.18;44.05;;;;;;;;;;5039431;28;20028;-83
2022/12/07 14:08:11;;;;;;;104.18;49.25;;;;;;;;;;5039416;28;20018;-83
2022/12/07 14:10:49;;;;;;;77.75;38.75;;;;;;;;;;5038272;28;20048;-83
2022/12/07 14:13:33;;;;;;;88.00;39.45;;;;;;;;;;5039393;28;20376;-83
2022/12/07 14:16:00;;;;;;;50.50;26.83;;;;;;;;;;5039080;28;20055;-83
2022/12/07 14:18:37;;;;;;;34.72;19.88;;;;;;;;;;5039149;28;20029;-83
2022/12/07 14:21:04;;;;;;;48.83;25.45;;;;;;;;;;5039135;28;20061;-83
2022/12/07 14:23:30;;;;;;;37.60;20.58;;;;;;;;;;5038158;28;20025;-83
2022/12/07 14:26:05;;;;;;;44.03;24.90;;;;;;;;;;5039037;28;20828;-83
2022/12/07 14:28:33;;;;;;;45.63;27.65;;;;;;;;;;5039016;28;20022;-83
2022/12/07 14:30:59;;;;;;;40.38;25.27;;;;;;;;;;5038948;28;20033;-83
2022/12/07 14:33:26;;;;;;;52.58;31.50;;;;;;;;;;5037863;28;20025;-83
2022/12/07 14:35:55;;;;;;;36.75;22.70;;;;;;;;;;5039005;28;20032;-83
2022/12/07 14:38:21;;;;;;;33.53;20.60;;;;;;;;;;5038778;28;20036;-83
2022/12/07 14:40:48;;;;;;;27.83;19.15;;;;;;;;;;5038638;28;20022;-84
2022/12/07 14:43:16;;;;;;;36.55;21.10;;;;;;;;;;5038702;28;20029;-84
2022/12/07 14:45:42;;;;;;;38.33;22.55;;;;;;;;;;5037614;28;20017;-83
2022/12/07 14:48:11;;;;;;;53.53;28.90;;;;;;;;;;5037159;28;20033;-83
2022/12/07 14:50:41;;;;;;;50.55;28.75;;;;;;;;;;5037385;28;20095;-84